Time;durP1;ratioP1;P1;durP2;ratioP2;P2;SDS_P1;SDS_P2;PMS_P1;PMS_P2;Temp;Humidity;BMP_temperature;BMP_pressure;BME280_temperature;BME280_humidity;BME280_pressure;Samples;Min_cycle;Max_cycle;Signal;HPM_P1;HPM_P2
2022/04/02 00:01:16;;;;;;;0.00;0.00;;;;;;;8.95;55.75;101806.19;7352384;19;20522;-58
2022/04/02 00:03:42;;;;;;;0.00;0.00;;;;;;;8.98;55.59;101816.63;7362583;19;20012;-58
2022/04/02 00:06:08;;;;;;;0.00;0.00;;;;;;;8.96;55.63;101817.47;7349255;19;20474;-57
2022/04/02 00:08:34;;;;;;;0.00;0.00;;;;;;;8.90;55.73;101813.13;7358267;19;20025;-56
2022/04/02 00:10:59;;;;;;;0.00;0.00;;;;;;;8.87;55.94;101814.84;7359692;19;21773;-57
2022/04/02 00:13:25;;;;;;;0.00;0.00;;;;;;;8.83;55.83;101816.59;7356662;19;20010;-59
2022/04/02 00:15:51;;;;;;;0.00;0.00;;;;;;;8.79;56.04;101812.25;7362057;19;20033;-58
2022/04/02 00:18:16;;;;;;;0.00;0.00;;;;;;;8.74;56.13;101807.00;7359022;19;20393;-57
2022/04/02 00:20:42;;;;;;;0.00;0.00;;;;;;;8.67;55.69;101805.28;7357061;19;20019;-58
2022/04/02 00:25:51;;;;;;;0.00;0.00;;;;;;;8.46;55.82;101787.81;7358629;19;20050;-58
2022/04/02 00:28:17;;;;;;;0.00;0.00;;;;;;;8.47;55.45;101802.59;7348781;19;20571;-58
2022/04/02 00:30:43;;;;;;;0.00;0.00;;;;;;;8.53;55.92;101819.97;7360999;19;20035;-57
2022/04/02 00:33:09;;;;;;;0.00;0.00;;;;;;;8.42;56.08;101801.72;7353246;19;20011;-58
2022/04/02 00:35:34;;;;;;;0.00;0.00;;;;;;;8.31;55.94;101787.72;7352775;19;20014;-58
2022/04/02 00:37:59;;;;;;;0.00;0.00;;;;;;;8.37;56.16;101811.25;7359083;19;20023;-58
2022/04/02 00:40:25;;;;;;;0.00;0.00;;;;;;;8.37;56.34;101816.44;7358756;19;20014;-57
2022/04/02 00:42:51;;;;;;;0.03;0.03;;;;;;;8.30;56.16;101804.22;7360336;19;20031;-58
2022/04/02 00:45:16;;;;;;;0.00;0.00;;;;;;;8.14;55.75;101784.19;7358383;19;20485;-58
2022/04/02 00:47:41;;;;;;;0.00;0.00;;;;;;;8.22;56.54;101800.72;7347693;19;20022;-57
2022/04/02 00:50:07;;;;;;;0.00;0.00;;;;;;;8.14;56.68;101795.47;7358706;19;20105;-57
2022/04/02 00:52:33;;;;;;;0.00;0.00;;;;;;;8.06;56.47;101784.19;7361447;19;20017;-58
2022/04/02 00:54:58;;;;;;;0.00;0.00;;;;;;;8.05;56.57;101793.69;7350640;19;20760;-57
2022/04/02 00:57:24;;;;;;;0.00;0.00;;;;;;;8.02;56.63;101801.50;7347235;19;20025;-56
2022/04/02 00:59:50;;;;;;;0.00;0.00;;;;;;;7.92;56.78;101784.09;7360115;19;20097;-57
2022/04/02 01:02:15;;;;;;;0.00;0.00;;;;;;;7.94;56.82;101794.50;7352816;19;20086;-56
2022/04/02 01:04:41;;;;;;;0.00;0.00;;;;;;;7.90;56.95;101796.19;7360645;19;20123;-58
2022/04/02 01:07:07;;;;;;;0.00;0.00;;;;;;;7.88;57.55;101803.13;7346227;19;20810;-55
2022/04/02 01:09:32;;;;;;;0.00;0.00;;;;;;;7.79;57.19;101784.88;7356060;19;20007;-58
2022/04/02 01:11:58;;;;;;;0.00;0.00;;;;;;;7.72;57.20;101780.50;7352982;19;20010;-58
2022/04/02 01:14:23;;;;;;;0.00;0.00;;;;;;;7.71;57.34;101776.19;7355202;19;20030;-58
2022/04/02 01:16:49;;;;;;;0.00;0.00;;;;;;;7.76;57.45;101790.06;7361049;19;20052;-57
2022/04/02 01:19:15;;;;;;;0.00;0.00;;;;;;;7.79;57.59;101795.28;7352150;19;20038;-57
2022/04/02 01:21:45;;;;;;;0.10;0.10;;;;;;;7.80;57.09;101799.59;7358351;19;20014;-56
2022/04/02 01:24:11;;;;;;;0.00;0.00;;;;;;;7.79;57.47;101795.28;7358641;19;20014;-57
2022/04/02 01:26:36;;;;;;;0.00;0.00;;;;;;;7.76;57.58;101795.28;7358213;19;20363;-58
2022/04/02 01:29:02;;;;;;;0.00;0.00;;;;;;;7.74;57.52;101786.56;7354605;19;20350;-58
2022/04/02 01:31:28;;;;;;;0.00;0.00;;;;;;;7.73;57.39;101787.44;7361309;19;20093;-58
2022/04/02 01:33:54;;;;;;;0.10;0.10;;;;;;;7.74;57.36;101789.19;7354949;19;20019;-57
2022/04/02 01:36:20;;;;;;;0.00;0.00;;;;;;;7.71;57.42;101786.56;7358039;19;20021;-57
2022/04/02 01:38:46;;;;;;;0.00;0.00;;;;;;;7.69;57.42;101785.69;7358187;19;20010;-56
2022/04/02 01:41:13;;;;;;;0.00;0.00;;;;;;;7.67;57.75;101788.28;7354871;19;20043;-56
2022/04/02 01:43:39;;;;;;;0.00;0.00;;;;;;;7.66;57.30;101780.47;7350028;19;20015;-57
2022/04/02 01:46:05;;;;;;;0.05;0.05;;;;;;;7.64;57.90;101779.56;7362265;19;20412;-57
2022/04/02 01:48:31;;;;;;;0.00;0.00;;;;;;;7.61;57.64;101783.03;7354384;19;20006;-58
2022/04/02 01:50:57;;;;;;;0.00;0.00;;;;;;;7.48;57.68;101756.09;7367517;19;20056;-57
2022/04/02 01:53:24;;;;;;;0.00;0.00;;;;;;;7.58;57.96;101774.34;7355532;19;20365;-60
2022/04/02 01:55:51;;;;;;;0.00;0.00;;;;;;;7.58;57.92;101763.94;7362465;19;20010;-55
2022/04/02 01:58:17;;;;;;;0.10;0.10;;;;;;;7.52;58.11;101767.38;7357330;19;20018;-55
2022/04/02 02:00:43;;;;;;;0.00;0.00;;;;;;;7.44;58.09;101751.72;7358255;19;20732;-57
2022/04/02 02:03:09;;;;;;;0.03;0.03;;;;;;;7.47;58.20;101759.53;7350011;19;20116;-57
2022/04/02 02:05:35;;;;;;;0.00;0.00;;;;;;;7.41;58.60;101753.44;7357701;19;20026;-58
2022/04/02 02:08:00;;;;;;;0.00;0.00;;;;;;;7.43;58.21;101759.50;7359686;19;20006;-56
2022/04/02 02:10:26;;;;;;;0.00;0.00;;;;;;;7.47;58.47;101762.16;7356276;19;20026;-57
2022/04/02 02:12:51;;;;;;;0.00;0.00;;;;;;;7.34;58.52;101736.91;7357363;19;20006;-57
2022/04/02 02:15:17;;;;;;;0.00;0.00;;;;;;;7.40;58.57;101747.38;7358803;19;20032;-57
2022/04/02 02:17:47;;;;;;;0.10;0.10;;;;;;;7.50;58.21;101762.19;7355783;19;20006;-58
2022/04/02 02:20:15;;;;;;;0.00;0.00;;;;;;;7.44;58.74;101756.91;7355898;19;20007;-57
2022/04/02 02:22:41;;;;;;;0.00;0.00;;;;;;;7.50;58.57;101762.19;7347126;19;20113;-58
2022/04/02 02:25:08;;;;;;;0.10;0.10;;;;;;;7.59;58.33;101768.28;7359140;19;20793;-57
2022/04/02 02:27:35;;;;;;;0.00;0.00;;;;;;;7.61;58.60;101771.78;7359609;19;20006;-57
2022/04/02 02:30:02;;;;;;;0.00;0.00;;;;;;;7.57;58.41;101763.09;7358522;19;20061;-58
2022/04/02 02:32:28;;;;;;;0.00;0.00;;;;;;;7.59;58.00;101755.28;7353280;19;20014;-58
2022/04/02 02:37:37;;;;;;;0.00;0.00;;;;;;;7.65;58.21;101760.50;7357873;19;20482;-58
2022/04/02 02:40:04;;;;;;;0.00;0.00;;;;;;;7.59;58.54;101755.28;7362844;19;20002;-58
2022/04/02 02:42:31;;;;;;;0.00;0.00;;;;;;;7.22;57.94;101690.06;7359681;19;20015;-58
2022/04/02 02:44:57;;;;;;;0.10;0.10;;;;;;;7.65;58.41;101769.19;7360031;19;20033;-57
2022/04/02 02:47:22;;;;;;;0.00;0.00;;;;;;;7.65;58.40;101766.59;7355762;19;20672;-58
2022/04/02 02:49:48;;;;;;;0.00;0.00;;;;;;;7.62;58.67;101760.50;7361986;19;20010;-57
2022/04/02 02:52:13;;;;;;;0.00;0.00;;;;;;;7.55;58.29;101743.97;7352636;19;20839;-57
2022/04/02 02:54:39;;;;;;;0.00;0.00;;;;;;;7.68;57.92;101763.16;7362229;19;20035;-57
2022/04/02 02:57:04;;;;;;;0.00;0.00;;;;;;;7.60;58.21;101751.81;7345213;19;20019;-57
2022/04/02 02:59:30;;;;;;;0.00;0.00;;;;;;;7.66;58.02;101757.94;7355537;19;20077;-58
2022/04/02 03:01:55;;;;;;;0.00;0.00;;;;;;;7.53;58.31;101731.00;7361509;19;20031;-56
2022/04/02 03:04:21;;;;;;;0.00;0.00;;;;;;;7.67;58.23;101753.63;7360048;19;20022;-57
2022/04/02 03:06:47;;;;;;;0.00;0.00;;;;;;;7.65;58.51;101747.50;7350458;19;20090;-57
2022/04/02 03:09:13;;;;;;;0.00;0.00;;;;;;;7.39;58.36;101708.38;7355700;19;20805;-57
2022/04/02 03:11:38;;;;;;;0.00;0.00;;;;;;;7.64;57.85;101749.25;7356972;19;20031;-59
2022/04/02 03:14:04;;;;;;;0.00;0.00;;;;;;;7.68;57.96;101744.94;7345004;19;20018;-58
2022/04/02 03:16:29;;;;;;;0.00;0.00;;;;;;;7.67;58.31;101748.41;7363734;19;20002;-58
2022/04/02 03:18:55;;;;;;;0.00;0.00;;;;;;;7.59;58.23;101729.28;7353432;19;20038;-57
2022/04/02 03:21:21;;;;;;;0.00;0.00;;;;;;;7.63;58.32;101733.66;7361256;19;20030;-57
2022/04/02 03:23:46;;;;;;;0.10;0.10;;;;;;;7.67;58.19;101738.00;7360360;19;20003;-56
2022/04/02 03:26:11;;;;;;;0.00;0.00;;;;;;;7.65;58.31;101739.72;7350638;19;20021;-58
2022/04/02 03:28:37;;;;;;;0.00;0.00;;;;;;;7.66;57.95;101737.16;7364361;19;20424;-58
2022/04/02 03:31:03;;;;;;;0.10;0.10;;;;;;;7.68;58.35;101739.75;7364316;19;20010;-56
2022/04/02 03:33:29;;;;;;;0.10;0.10;;;;;;;7.66;58.26;101733.69;7346687;19;20608;-57
2022/04/02 03:35:54;;;;;;;0.00;0.00;;;;;;;7.67;58.39;101732.81;7365784;19;20017;-55
2022/04/02 03:38:20;;;;;;;0.00;0.00;;;;;;;7.71;58.09;101737.19;7352339;19;20014;-57
2022/04/02 03:40:46;;;;;;;0.00;0.00;;;;;;;7.61;58.28;101712.00;7364181;19;20003;-56
2022/04/02 03:43:11;;;;;;;0.00;0.00;;;;;;;7.67;58.56;101725.88;7352231;19;20006;-55
2022/04/02 03:45:36;;;;;;;0.00;0.00;;;;;;;7.64;58.67;101727.59;7354693;19;20010;-58
2022/04/02 03:48:02;;;;;;;0.00;0.00;;;;;;;7.62;58.35;101718.91;7362604;19;20006;-57
2022/04/02 03:50:28;;;;;;;0.00;0.00;;;;;;;7.69;58.12;101725.88;7361948;19;20011;-57
2022/04/02 03:52:53;;;;;;;0.00;0.00;;;;;;;7.65;58.91;101718.91;7359786;19;20021;-58
2022/04/02 03:55:18;;;;;;;0.00;0.00;;;;;;;7.68;58.95;101730.22;7351937;19;20011;-58
2022/04/02 03:57:47;;;;;;;0.00;0.00;;;;;;;7.65;58.90;101714.59;7363014;19;20019;-58
2022/04/02 04:00:13;;;;;;;0.00;0.00;;;;;;;7.67;59.20;101735.41;7360921;19;20016;-57
2022/04/02 04:02:39;;;;;;;0.00;0.00;;;;;;;7.51;58.92;101691.13;7363535;19;20782;-57
2022/04/02 04:05:08;;;;;;;0.00;0.00;;;;;;;7.65;59.04;101717.19;7363828;19;20022;-57
2022/04/02 04:07:34;;;;;;;0.00;0.00;;;;;;;7.64;58.99;101712.00;7359458;19;20022;-58
2022/04/02 04:09:59;;;;;;;0.00;0.00;;;;;;;7.60;59.21;101705.03;7362275;19;20014;-57
2022/04/02 04:12:25;;;;;;;0.00;0.00;;;;;;;7.51;58.80;101691.13;7358405;19;20014;-58
2022/04/02 04:14:50;;;;;;;0.00;0.00;;;;;;;7.63;59.08;101715.47;7357557;19;20074;-59
2022/04/02 04:17:15;;;;;;;0.00;0.00;;;;;;;7.63;59.29;101716.31;7351906;19;20007;-59
2022/04/02 04:19:41;;;;;;;0.00;0.00;;;;;;;7.50;59.03;101693.72;7364539;19;20014;-57
2022/04/02 04:22:06;;;;;;;0.00;0.00;;;;;;;7.47;59.06;101689.38;7348090;19;20014;-58
2022/04/02 04:24:33;;;;;;;0.03;0.03;;;;;;;7.49;59.39;101698.03;7364525;19;20018;-58
2022/04/02 04:26:58;;;;;;;0.00;0.00;;;;;;;7.43;59.28;101690.22;7362662;19;20039;-59
2022/04/02 04:29:24;;;;;;;0.05;0.05;;;;;;;7.49;59.59;101698.03;7362093;19;20010;-58
2022/04/02 04:31:49;;;;;;;0.03;0.03;;;;;;;7.63;59.72;101720.66;7358331;19;20019;-58
2022/04/02 04:34:17;;;;;;;0.00;0.00;;;;;;;7.63;59.81;101731.06;7353538;19;20366;-57
2022/04/02 04:36:42;;;;;;;0.10;0.10;;;;;;;7.27;59.56;101655.47;7362997;19;20014;-58
2022/04/02 04:39:08;;;;;;;0.00;0.00;;;;;;;7.63;59.87;101718.06;7355161;19;20035;-58
2022/04/02 04:41:33;;;;;;;0.10;0.10;;;;;;;7.45;59.63;101691.13;7360649;19;20010;-59
2022/04/02 04:43:59;;;;;;;0.00;0.00;;;;;;;7.64;59.71;101712.00;7363832;19;20015;-56
2022/04/02 04:46:24;;;;;;;0.00;0.00;;;;;;;7.52;59.90;101692.00;7359487;19;20014;-58
2022/04/02 04:48:50;;;;;;;0.00;0.00;;;;;;;7.65;59.76;101713.72;7360635;19;20352;-58
2022/04/02 04:51:15;;;;;;;0.00;0.00;;;;;;;7.69;59.84;101720.69;7346463;19;20026;-58
2022/04/02 04:53:41;;;;;;;0.00;0.00;;;;;;;7.69;60.04;101725.88;7363065;19;20025;-57
2022/04/02 04:56:08;;;;;;;0.00;0.00;;;;;;;7.69;60.26;101720.69;7357369;19;20053;-56
2022/04/02 04:58:33;;;;;;;0.00;0.00;;;;;;;7.68;59.91;101718.94;7357587;19;20015;-56
2022/04/02 05:00:59;;;;;;;0.00;0.00;;;;;;;7.66;60.08;101718.94;7353027;19;20014;-56
2022/04/02 05:03:25;;;;;;;0.00;0.00;;;;;;;7.62;60.42;101703.31;7355531;19;20014;-57
2022/04/02 05:05:52;;;;;;;0.00;0.00;;;;;;;7.73;60.16;101731.13;7362728;19;20017;-56
2022/04/02 05:08:19;;;;;;;0.00;0.00;;;;;;;7.73;60.10;101727.66;7355820;19;20074;-58
2022/04/02 05:10:45;;;;;;;0.00;0.00;;;;;;;7.75;60.18;101731.09;7357563;19;21145;-57
2022/04/02 05:13:13;;;;;;;0.00;0.00;;;;;;;7.76;59.93;101732.88;7363963;19;20525;-58
2022/04/02 05:15:40;;;;;;;0.10;0.10;;;;;;;7.69;60.13;101720.69;7344997;19;20014;-57
2022/04/02 05:18:06;;;;;;;0.10;0.10;;;;;;;7.73;60.03;101732.84;7355594;19;20117;-56
2022/04/02 05:20:32;;;;;;;0.00;0.00;;;;;;;7.59;60.07;101705.91;7352549;19;20164;-58
2022/04/02 05:22:57;;;;;;;0.00;0.00;;;;;;;7.59;60.01;101713.69;7361374;19;20724;-55
2022/04/02 05:25:23;;;;;;;0.00;0.00;;;;;;;7.75;60.40;101736.31;7361150;19;20050;-57
2022/04/02 05:27:49;;;;;;;0.00;0.00;;;;;;;7.63;60.46;101715.47;7355922;19;20109;-58
2022/04/02 05:30:14;;;;;;;0.00;0.00;;;;;;;7.77;60.34;101739.81;7357029;19;20014;-58
2022/04/02 05:32:40;;;;;;;0.00;0.00;;;;;;;7.68;60.89;101722.41;7359401;19;20036;-58
2022/04/02 05:35:07;;;;;;;0.00;0.00;;;;;;;7.74;60.24;101731.97;7355136;19;20106;-55
2022/04/02 05:37:32;;;;;;;0.00;0.00;;;;;;;7.73;60.34;101738.91;7360065;19;20685;-56
2022/04/02 05:39:58;;;;;;;0.00;0.00;;;;;;;7.78;60.36;101732.00;7353045;19;20031;-55
2022/04/02 05:42:23;;;;;;;0.00;0.00;;;;;;;7.80;60.25;101734.59;7355812;19;20027;-57
2022/04/02 05:44:49;;;;;;;0.00;0.00;;;;;;;7.67;60.56;101712.88;7354918;19;20002;-57
2022/04/02 05:47:15;;;;;;;0.00;0.00;;;;;;;7.83;60.34;101739.84;7352761;19;20007;-56
2022/04/02 05:49:40;;;;;;;0.00;0.00;;;;;;;7.81;60.72;101741.56;7352309;19;22033;-58
2022/04/02 05:52:06;;;;;;;0.00;0.00;;;;;;;7.73;60.76;101727.66;7361281;19;20011;-58
2022/04/02 05:54:33;;;;;;;0.00;0.00;;;;;;;7.82;60.68;101732.03;7348991;19;20378;-57
2022/04/02 05:56:58;;;;;;;0.00;0.00;;;;;;;7.80;60.26;101739.81;7360762;19;20011;-57
2022/04/02 05:59:24;;;;;;;0.00;0.00;;;;;;;7.84;60.89;101746.75;7348276;19;20030;-57
2022/04/02 06:01:50;;;;;;;0.00;0.00;;;;;;;7.85;60.46;101748.50;7353924;19;20015;-57
2022/04/02 06:04:16;;;;;;;0.00;0.00;;;;;;;7.76;60.75;101732.88;7358948;19;20006;-58
2022/04/02 06:06:41;;;;;;;0.00;0.00;;;;;;;7.86;60.39;101737.25;7356327;19;20681;-57
2022/04/02 06:09:07;;;;;;;0.00;0.00;;;;;;;7.85;60.71;101743.28;7355063;19;20048;-57
2022/04/02 06:11:32;;;;;;;0.00;0.00;;;;;;;7.80;60.81;101735.47;7358773;19;20845;-57
2022/04/02 06:13:58;;;;;;;0.10;0.10;;;;;;;7.84;61.24;101746.75;7354816;19;20466;-58
2022/04/02 06:16:25;;;;;;;0.00;0.00;;;;;;;7.81;61.02;101736.38;7351680;19;20657;-56
2022/04/02 06:18:51;;;;;;;0.00;0.00;;;;;;;7.85;60.91;101748.50;7351302;19;20846;-57
2022/04/02 06:21:17;;;;;;;0.05;0.05;;;;;;;7.83;61.19;101744.16;7354204;19;20018;-58
2022/04/02 06:23:42;;;;;;;0.00;0.00;;;;;;;7.87;60.49;101749.41;7351566;19;20032;-57
2022/04/02 06:26:08;;;;;;;0.05;0.05;;;;;;;7.90;60.95;101754.59;7355568;19;20045;-58
2022/04/02 06:28:34;;;;;;;0.00;0.00;;;;;;;7.87;61.15;101749.41;7344563;19;20014;-58
2022/04/02 06:30:59;;;;;;;0.00;0.00;;;;;;;7.76;61.13;101727.66;7356780;19;20905;-57
2022/04/02 06:33:25;;;;;;;0.00;0.00;;;;;;;7.94;60.95;101756.34;7361607;19;20404;-56
2022/04/02 06:35:50;;;;;;;0.00;0.00;;;;;;;7.97;61.29;101764.19;7361675;19;20039;-56
2022/04/02 06:38:17;;;;;;;0.00;0.00;;;;;;;7.98;61.47;101771.13;7359807;19;20348;-57
2022/04/02 06:40:42;;;;;;;0.00;0.00;;;;;;;7.95;61.52;101760.69;7363298;19;20054;-55
2022/04/02 06:43:07;;;;;;;0.00;0.00;;;;;;;7.93;61.33;101752.03;7356838;19;20668;-57
2022/04/02 06:45:33;;;;;;;0.00;0.00;;;;;;;8.06;60.86;101774.63;7362300;19;20935;-58
2022/04/02 06:47:58;;;;;;;0.00;0.00;;;;;;;8.04;61.31;101765.94;7353669;19;20047;-57
2022/04/02 06:50:24;;;;;;;0.00;0.00;;;;;;;8.09;60.95;101778.09;7361195;19;20024;-57
2022/04/02 06:52:49;;;;;;;0.00;0.00;;;;;;;8.12;61.03;101784.19;7350436;19;20014;-58
2022/04/02 06:55:16;;;;;;;0.00;0.00;;;;;;;8.13;61.02;101779.88;7352089;19;20027;-56
2022/04/02 06:57:42;;;;;;;0.00;0.00;;;;;;;8.14;61.45;101779.00;7353586;19;20098;-58
2022/04/02 07:00:08;;;;;;;0.00;0.00;;;;;;;8.15;61.62;101784.19;7356211;19;20020;-57
2022/04/02 07:02:33;;;;;;;0.00;0.00;;;;;;;8.12;61.56;101772.94;7360089;19;20006;-57
2022/04/02 07:04:59;;;;;;;0.00;0.00;;;;;;;8.17;61.37;101781.63;7360142;19;20015;-56
2022/04/02 07:07:24;;;;;;;0.00;0.00;;;;;;;8.15;61.46;101775.53;7357088;19;20859;-58
2022/04/02 07:09:49;;;;;;;0.10;0.10;;;;;;;8.28;61.65;101779.94;7358150;19;20011;-57
2022/04/02 07:12:15;;;;;;;0.00;0.00;;;;;;;8.33;61.35;101786.88;7353678;19;20081;-56
2022/04/02 07:14:40;;;;;;;0.00;0.00;;;;;;;8.37;61.45;101794.75;7361385;19;20041;-58
2022/04/02 07:17:06;;;;;;;0.10;0.10;;;;;;;8.44;61.88;101794.78;7356191;19;20010;-57
2022/04/02 07:19:33;;;;;;;0.00;0.00;;;;;;;8.52;61.65;101803.50;7360215;19;20095;-58
2022/04/02 07:22:00;;;;;;;0.00;0.00;;;;;;;8.56;61.46;101797.41;7349598;19;20014;-57
2022/04/02 07:24:25;;;;;;;0.00;0.00;;;;;;;8.63;61.31;101810.47;7356377;19;20019;-58
2022/04/02 07:26:53;;;;;;;0.00;0.00;;;;;;;8.67;61.21;101801.78;7355627;19;20042;-57
2022/04/02 07:29:19;;;;;;;0.00;0.00;;;;;;;8.70;61.21;101810.47;7358689;19;21108;-58
2022/04/02 07:31:44;;;;;;;0.00;0.00;;;;;;;8.49;61.28;101768.75;7356209;19;20006;-58
2022/04/02 07:34:11;;;;;;;0.00;0.00;;;;;;;8.69;61.11;101800.06;7363253;19;20912;-57
2022/04/02 07:37:05;;;;;;;0.00;0.00;;;;;;;8.90;60.06;101820.94;7340087;19;20017;-54
2022/04/02 07:39:46;;;;;;;0.00;0.00;;;;;;;8.96;59.43;101815.72;7255839;19;2004196;-55
2022/04/02 07:42:23;;;;;;;0.00;0.00;;;;;;;9.00;59.90;101822.69;7359248;19;20021;-56
2022/04/02 07:45:04;;;;;;;0.00;0.00;;;;;;;9.05;59.65;101818.38;7357900;19;20389;-57
2022/04/02 07:47:32;;;;;;;0.10;0.10;;;;;;;8.93;61.07;101800.13;7356779;19;20018;-56
2022/04/02 07:50:11;;;;;;;0.00;0.00;;;;;;;9.15;60.31;101826.19;7352599;19;20010;-56
2022/04/02 07:52:38;;;;;;;0.00;0.00;;;;;;;9.14;61.32;101806.22;7358903;19;20109;-57
2022/04/02 07:55:07;;;;;;;0.00;0.00;;;;;;;9.29;61.08;101817.53;7356595;19;20031;-58
2022/04/02 07:57:53;;;;;;;0.00;0.00;;;;;;;9.41;59.62;101819.25;7352593;19;20018;-58
2022/04/02 08:00:20;;;;;;;0.00;0.00;;;;;;;9.47;60.85;101816.63;7360542;19;20018;-57
2022/04/02 08:02:48;;;;;;;0.00;0.00;;;;;;;9.52;60.60;101814.03;7359675;19;20010;-58
2022/04/02 08:05:16;;;;;;;0.00;0.00;;;;;;;9.62;60.50;101827.06;7358589;19;20013;-57
2022/04/02 08:07:49;;;;;;;0.00;0.00;;;;;;;9.66;60.22;101825.31;7356848;19;20804;-58
2022/04/02 08:10:16;;;;;;;0.00;0.00;;;;;;;9.69;60.00;101827.09;7345690;19;20047;-57
2022/04/02 08:12:41;;;;;;;0.00;0.00;;;;;;;9.71;60.18;101833.16;7358372;19;20035;-55
2022/04/02 08:15:09;;;;;;;0.00;0.00;;;;;;;9.74;60.05;101835.78;7355939;19;20432;-57
2022/04/02 08:17:37;;;;;;;0.00;0.00;;;;;;;9.75;60.04;101832.28;7353877;19;20615;-58
2022/04/02 08:20:03;;;;;;;0.00;0.00;;;;;;;9.75;59.66;101835.75;7358363;19;20026;-55
2022/04/02 08:22:29;;;;;;;0.00;0.00;;;;;;;9.76;59.53;101836.63;7352104;19;20010;-57
2022/04/02 08:24:56;;;;;;;0.00;0.00;;;;;;;9.64;59.68;101821.00;7355440;19;20014;-57
2022/04/02 08:27:29;;;;;;;0.00;0.00;;;;;;;9.75;59.49;101845.31;7351015;19;20094;-57
2022/04/02 08:30:17;;;;;;;0.00;0.00;;;;;;;9.78;58.22;101847.91;7352771;19;20029;-58
2022/04/02 08:33:04;;;;;;;0.00;0.00;;;;;;;9.78;58.27;101847.91;7350428;19;20730;-56
2022/04/02 08:35:32;;;;;;;0.00;0.00;;;;;;;9.77;59.15;101843.56;7354615;19;20758;-57
2022/04/02 08:38:19;;;;;;;0.00;0.00;;;;;;;9.78;58.61;101838.38;7354516;19;20007;-57
2022/04/02 08:41:12;;;;;;;0.00;0.00;;;;;;;9.79;57.86;101834.03;7357199;19;20018;-58
2022/04/02 08:44:02;;;;;;;0.00;0.00;;;;;;;9.83;58.14;101840.94;7243881;19;2004555;-56
2022/04/02 08:46:35;;;;;;;0.00;0.00;;;;;;;9.82;58.56;101840.09;7252734;19;2004309;-55
2022/04/02 08:49:35;;;;;;;0.00;0.00;;;;;;;9.87;58.22;101821.81;7347673;19;20017;-61
2022/04/02 08:52:13;;;;;;;0.00;0.00;;;;;;;9.93;58.10;101832.25;7241206;19;2004129;-55
2022/04/02 08:54:58;;;;;;;0.05;0.05;;;;;;;9.98;58.97;101830.50;7341519;19;20018;-57
2022/04/02 08:57:57;;;;;;;0.00;0.00;;;;;;;10.11;58.85;101827.00;7348066;19;20040;-56
2022/04/02 09:00:28;;;;;;;0.00;0.00;;;;;;;10.28;59.38;101834.78;7245624;19;2004273;-56
2022/04/02 09:02:53;;;;;;;0.10;0.10;;;;;;;10.47;58.99;101830.38;7350483;19;20027;-56
2022/04/02 09:05:42;;;;;;;0.00;0.00;;;;;;;10.82;58.34;101831.94;7350796;19;20014;-56
2022/04/02 09:08:35;;;;;;;0.00;0.00;;;;;;;11.20;57.98;101822.97;7345477;19;20010;-57
2022/04/02 09:11:21;;;;;;;0.00;0.00;;;;;;;11.67;57.03;101820.00;7252162;19;2004505;-55
2022/04/02 09:13:56;;;;;;;0.00;0.00;;;;;;;12.00;56.49;101824.03;7353371;19;20362;-55
2022/04/02 09:16:52;;;;;;;0.00;0.00;;;;;;;12.39;55.65;101832.34;7352755;19;20073;-54
2022/04/02 09:19:28;;;;;;;0.00;0.00;;;;;;;12.78;55.54;101830.09;7250594;19;2004286;-55
2022/04/02 09:22:06;;;;;;;0.00;0.00;;;;;;;13.19;55.40;101835.59;7355198;19;20883;-56
2022/04/02 09:24:47;;;;;;;0.00;0.00;;;;;;;13.61;54.49;101830.56;7355767;19;20031;-55
2022/04/02 09:27:51;;;;;;;0.00;0.00;;;;;;;14.18;54.50;101830.38;7354930;19;20699;-55
2022/04/02 09:30:40;;;;;;;0.00;0.00;;;;;;;14.59;53.51;101830.47;7251823;19;2004502;-56
2022/04/02 09:33:27;;;;;;;0.00;0.00;;;;;;;15.05;53.11;101822.44;7354978;19;20689;-56
2022/04/02 09:36:14;;;;;;;0.00;0.00;;;;;;;15.34;51.35;101826.13;7356486;19;20393;-56
2022/04/02 09:38:57;;;;;;;0.00;0.00;;;;;;;15.41;49.17;101832.97;7356833;19;20019;-56
2022/04/02 09:41:24;;;;;;;0.00;0.00;;;;;;;15.49;48.79;101833.66;7360147;19;20006;-53
2022/04/02 09:44:06;;;;;;;0.00;0.00;;;;;;;15.56;48.75;101840.47;7352290;19;20030;-56
2022/04/02 09:46:53;;;;;;;0.00;0.00;;;;;;;15.50;49.53;101840.66;7353199;19;20050;-55
2022/04/02 09:49:35;;;;;;;0.00;0.00;;;;;;;15.32;47.82;101850.72;7350294;19;20007;-55
2022/04/02 09:52:16;;;;;;;0.00;0.00;;;;;;;15.13;47.96;101853.84;7354249;19;20018;-55
2022/04/02 09:54:54;;;;;;;0.00;0.00;;;;;;;14.94;47.52;101858.63;7352752;19;20019;-55
2022/04/02 09:57:35;;;;;;;0.00;0.00;;;;;;;14.79;49.14;101833.53;7349876;19;20013;-55
2022/04/02 10:00:05;;;;;;;0.00;0.00;;;;;;;15.01;48.85;101853.22;7336476;19;20007;-54
2022/04/02 10:02:57;;;;;;;0.00;0.00;;;;;;;15.16;48.89;101862.53;7352308;19;20035;-55
2022/04/02 10:05:34;;;;;;;0.00;0.00;;;;;;;15.27;47.38;101855.25;7354157;19;20015;-55
2022/04/02 10:08:05;;;;;;;0.00;0.00;;;;;;;15.37;47.41;101839.25;7362132;19;20048;-53
2022/04/02 10:10:31;;;;;;;0.00;0.00;;;;;;;15.39;46.14;101824.25;7358896;19;20959;-56
2022/04/02 10:12:57;;;;;;;0.00;0.00;;;;;;;15.48;46.24;101811.72;7349350;19;20010;-56
2022/04/02 10:15:23;;;;;;;0.00;0.00;;;;;;;15.78;45.75;101849.63;7360060;19;20018;-55
2022/04/02 10:17:52;;;;;;;0.00;0.00;;;;;;;15.81;45.45;101854.81;7356559;19;20039;-55
2022/04/02 10:20:23;;;;;;;0.00;0.00;;;;;;;15.80;45.90;101853.06;7358171;19;20003;-56
2022/04/02 10:22:58;;;;;;;0.00;0.00;;;;;;;15.80;45.78;101855.69;7360742;19;20025;-55
2022/04/02 10:25:29;;;;;;;0.00;0.00;;;;;;;15.90;45.62;101847.56;7358564;19;20787;-54
2022/04/02 10:27:54;;;;;;;0.00;0.00;;;;;;;16.09;45.69;101843.53;7358787;19;20029;-54
2022/04/02 10:30:20;;;;;;;0.00;0.00;;;;;;;16.35;46.27;101826.97;7360901;19;20637;-56
2022/04/02 10:32:52;;;;;;;0.00;0.00;;;;;;;17.05;46.96;101845.13;7362070;19;20006;-56
2022/04/02 10:35:25;;;;;;;0.00;0.00;;;;;;;17.54;44.81;101844.41;7357818;19;20010;-56
2022/04/02 10:38:05;;;;;;;0.00;0.00;;;;;;;18.18;44.50;101846.63;7355447;19;20011;-56
2022/04/02 10:40:32;;;;;;;0.00;0.00;;;;;;;18.54;43.60;101835.59;7354884;19;20015;-55
2022/04/02 10:43:02;;;;;;;0.00;0.00;;;;;;;19.08;42.18;101839.72;7357045;19;20014;-56
2022/04/02 10:45:28;;;;;;;0.00;0.00;;;;;;;19.60;42.27;101827.00;7346000;19;20701;-56
2022/04/02 10:48:12;;;;;;;0.00;0.00;;;;;;;20.36;43.43;101828.91;7361637;19;20042;-56
2022/04/02 10:50:40;;;;;;;0.10;0.10;;;;;;;20.60;38.52;101823.44;7358504;19;20074;-53
2022/04/02 10:53:09;;;;;;;0.00;0.00;;;;;;;20.74;38.08;101823.66;7360159;19;20029;-55
2022/04/02 10:55:42;;;;;;;0.00;0.00;;;;;;;20.85;38.32;101825.81;7356161;19;20754;-56
2022/04/02 10:58:10;;;;;;;0.00;0.00;;;;;;;20.94;38.05;101826.22;7353486;19;20534;-55
2022/04/02 11:00:38;;;;;;;0.00;0.00;;;;;;;21.15;37.14;101819.00;7353336;19;20014;-56
2022/04/02 11:03:06;;;;;;;0.00;0.00;;;;;;;21.24;35.98;101823.88;7356842;19;20010;-54
2022/04/02 11:05:40;;;;;;;0.00;0.00;;;;;;;21.30;37.32;101830.72;7353042;19;20022;-56
2022/04/02 11:08:10;;;;;;;0.00;0.00;;;;;;;21.09;35.31;101824.63;7357018;19;20014;-56
2022/04/02 11:10:36;;;;;;;0.00;0.00;;;;;;;20.74;35.31;101828.97;7353301;19;20788;-54
2022/04/02 11:13:04;;;;;;;0.00;0.00;;;;;;;20.42;35.59;101833.94;7358029;19;20015;-55
2022/04/02 11:15:36;;;;;;;0.00;0.00;;;;;;;20.17;35.23;101833.31;7353325;19;20017;-54
2022/04/02 11:18:02;;;;;;;0.00;0.00;;;;;;;19.96;36.36;101830.69;7353761;19;20014;-55
2022/04/02 11:20:32;;;;;;;0.00;0.00;;;;;;;20.00;36.17;101835.88;7342900;19;20680;-53
2022/04/02 11:23:20;;;;;;;0.00;0.00;;;;;;;20.08;37.60;101839.91;7339099;19;20068;-55
2022/04/02 11:25:54;;;;;;;0.05;0.05;;;;;;;20.14;36.67;101836.13;7331992;19;20031;-55
2022/04/02 11:28:22;;;;;;;0.10;0.10;;;;;;;20.27;35.81;101839.94;7345894;19;20029;-53
2022/04/02 11:30:52;;;;;;;0.00;0.00;;;;;;;20.36;36.16;101844.84;7358745;19;20022;-55
2022/04/02 11:33:19;;;;;;;0.00;0.00;;;;;;;20.55;36.84;101844.03;7361049;19;20479;-55
2022/04/02 11:35:55;;;;;;;0.10;0.10;;;;;;;20.87;37.23;101835.41;7351841;19;20046;-56
2022/04/02 11:38:21;;;;;;;0.00;0.00;;;;;;;21.10;35.79;101842.28;7348737;19;20006;-56
2022/04/02 11:41:05;;;;;;;0.00;0.00;;;;;;;21.44;36.99;101841.53;7357823;19;20007;-56
2022/04/02 11:43:32;;;;;;;0.00;0.00;;;;;;;21.67;35.34;101842.13;7353440;19;20014;-56
2022/04/02 11:46:00;;;;;;;0.00;0.00;;;;;;;22.05;33.61;101842.81;7357003;19;20600;-56